createdAt,value
2023-04-18T00:02:01.695Z,9.23
2023-04-18T00:07:23.710Z,9.24
2023-04-18T00:12:16.112Z,9.23
2023-04-18T00:17:16.080Z,9.22
2023-04-18T00:22:15.980Z,9.23
2023-04-18T00:27:15.946Z,9.24
2023-04-18T00:32:15.857Z,9.25
2023-04-18T00:37:15.831Z,9.25
2023-04-18T00:42:15.733Z,9.23
2023-04-18T00:47:15.666Z,9.19
2023-04-18T00:52:15.586Z,9.14
2023-04-18T00:57:15.548Z,9.08
2023-04-18T01:02:15.503Z,9.02
2023-04-18T01:07:15.398Z,8.96
2023-04-18T01:12:15.328Z,8.89
2023-04-18T01:17:16.295Z,8.82
2023-04-18T01:22:15.182Z,8.75
2023-04-18T01:27:15.171Z,8.69
2023-04-18T01:32:15.056Z,8.62
2023-04-18T01:37:15.003Z,8.55
2023-04-18T01:42:14.940Z,8.49
2023-04-18T01:47:14.876Z,8.43
2023-04-18T01:52:14.791Z,8.38
2023-04-18T01:57:14.753Z,8.33
2023-04-18T02:02:14.791Z,8.28
2023-04-18T02:07:14.599Z,8.22
2023-04-18T02:12:14.518Z,8.16
2023-04-18T02:17:14.473Z,8.10
2023-04-18T02:22:14.406Z,8.04
2023-04-18T02:27:14.346Z,7.98
2023-04-18T02:32:14.254Z,7.92
2023-04-18T02:37:14.211Z,7.86
2023-04-18T02:42:14.161Z,7.81
2023-04-18T02:47:14.081Z,7.76
2023-04-18T02:52:13.994Z,7.72
2023-04-18T02:57:13.948Z,7.68
2023-04-18T03:02:13.905Z,7.64
2023-04-18T03:07:13.815Z,7.55
2023-04-18T03:12:13.747Z,7.42
2023-04-18T03:17:13.685Z,7.27
2023-04-18T03:22:13.606Z,7.09
2023-04-18T03:27:13.654Z,6.92
2023-04-18T03:32:13.456Z,6.79
2023-04-18T03:37:13.424Z,6.73
2023-04-18T03:42:13.365Z,6.73
2023-04-18T03:47:13.285Z,6.77
2023-04-18T03:52:13.289Z,6.83
2023-04-18T03:57:13.155Z,6.88
2023-04-18T04:02:13.143Z,6.93
2023-04-18T04:07:13.039Z,6.98
2023-04-18T04:12:12.945Z,7.01
2023-04-18T04:17:23.909Z,7.04
2023-04-18T04:22:16.269Z,7.05
2023-04-18T04:27:16.194Z,7.05
2023-04-18T04:32:16.148Z,7.07
2023-04-18T04:37:16.077Z,7.09
2023-04-18T04:42:16.025Z,7.13
2023-04-18T04:47:15.927Z,7.19
2023-04-18T04:52:15.893Z,7.27
2023-04-18T04:57:15.810Z,7.39
2023-04-18T05:02:15.815Z,7.53
2023-04-18T05:07:15.838Z,7.68
2023-04-18T05:12:15.635Z,7.83
2023-04-18T05:17:15.540Z,7.96
2023-04-18T05:22:15.495Z,8.09
2023-04-18T05:27:17.658Z,8.22
2023-04-18T05:32:15.371Z,8.35
2023-04-18T05:37:15.281Z,8.46
2023-04-18T05:42:15.231Z,8.57
2023-04-18T05:47:15.269Z,8.71
2023-04-18T05:52:15.099Z,8.86
2023-04-18T05:57:15.014Z,9.00
2023-04-18T06:02:15.046Z,9.15
2023-04-18T06:07:14.905Z,9.28
2023-04-18T06:12:14.846Z,9.40
2023-04-18T06:17:14.740Z,9.53
2023-04-18T06:22:14.734Z,9.66
2023-04-18T06:27:27.888Z,9.80
2023-04-18T06:32:15.571Z,10.55
2023-04-18T06:37:14.474Z,14.74
2023-04-18T06:42:14.446Z,21.15
2023-04-18T06:47:14.347Z,26.83
2023-04-18T06:52:14.340Z,31.18
2023-04-18T06:57:14.304Z,34.18
2023-04-18T07:02:14.260Z,35.84
2023-04-18T07:07:15.061Z,36.09
2023-04-18T07:12:14.058Z,35.23
2023-04-18T07:17:14.092Z,33.62
2023-04-18T07:22:13.905Z,32.17
2023-04-18T07:27:13.838Z,30.75
2023-04-18T07:32:13.784Z,28.64
2023-04-18T07:37:14.894Z,26.22
2023-04-18T07:42:13.653Z,23.87
2023-04-18T07:47:13.576Z,21.88
2023-04-18T07:52:13.515Z,20.24
2023-04-18T07:57:13.438Z,18.87
2023-04-18T08:02:13.426Z,17.96
2023-04-18T08:07:13.385Z,17.26
2023-04-18T08:12:13.254Z,16.53
2023-04-18T08:17:13.177Z,15.81
2023-04-18T08:22:13.166Z,15.18
2023-04-18T08:27:13.253Z,14.67
2023-04-18T08:32:12.979Z,14.32
2023-04-18T08:37:12.902Z,14.07
2023-04-18T08:42:12.850Z,13.95
2023-04-18T08:47:12.780Z,13.89
2023-04-18T08:52:12.768Z,13.96
2023-04-18T08:57:12.682Z,14.94
2023-04-18T09:02:12.649Z,17.04
2023-04-18T09:07:12.513Z,19.56
2023-04-18T09:12:12.466Z,21.84
2023-04-18T09:17:12.386Z,22.84
2023-04-18T09:22:12.337Z,22.74
2023-04-18T09:27:12.246Z,22.16
2023-04-18T09:32:12.188Z,21.53
2023-04-18T09:37:12.521Z,21.06
2023-04-18T09:42:12.306Z,20.57
2023-04-18T09:47:11.974Z,20.07
2023-04-18T09:52:11.920Z,20.74
2023-04-18T09:57:11.896Z,21.51
2023-04-18T10:02:11.807Z,21.96
2023-04-18T10:07:11.756Z,23.72
2023-04-18T10:12:11.655Z,25.51
2023-04-18T10:17:11.570Z,25.56
2023-04-18T10:22:11.595Z,24.43
2023-04-18T10:27:11.557Z,23.83
2023-04-18T10:32:11.413Z,24.09
2023-04-18T10:37:11.337Z,24.07
2023-04-18T10:42:11.266Z,23.65
2023-04-18T10:47:11.278Z,23.91
2023-04-18T10:57:11.066Z,26.07
2023-04-18T11:02:11.008Z,28.52
2023-04-18T11:07:11.279Z,30.54
2023-04-18T11:12:10.886Z,31.72
2023-04-18T11:17:10.801Z,31.27
2023-04-18T11:22:10.785Z,29.42
2023-04-18T11:27:10.658Z,27.26
2023-04-18T11:32:10.665Z,25.66
2023-04-18T11:37:10.567Z,24.58
2023-04-18T11:42:10.496Z,24.04
2023-04-18T11:47:10.777Z,24.07
2023-04-18T11:52:10.338Z,24.52
2023-04-18T11:57:10.267Z,24.78
2023-04-18T12:07:10.134Z,25.44
2023-04-18T12:12:10.120Z,26.49
2023-04-18T12:17:09.996Z,26.41
2023-04-18T12:22:10.156Z,25.33
2023-04-18T12:27:09.860Z,24.89
2023-04-18T12:32:09.801Z,25.24
2023-04-18T12:37:09.745Z,25.59
2023-04-18T12:42:10.067Z,25.67
2023-04-18T12:47:09.642Z,25.72
2023-04-18T12:52:09.533Z,25.67
2023-04-18T12:57:09.517Z,25.66
2023-04-18T13:02:09.545Z,25.59
2023-04-18T13:07:09.349Z,24.85
2023-04-18T13:12:09.324Z,23.62
2023-04-18T13:17:09.192Z,22.38
2023-04-18T13:22:09.200Z,21.34
2023-04-18T13:27:09.034Z,20.52
2023-04-18T13:32:09.206Z,19.93
2023-04-18T13:37:08.948Z,19.71
2023-04-18T13:42:08.967Z,19.79
2023-04-18T13:47:09.172Z,20.13
2023-04-18T13:52:08.816Z,20.68
2023-04-18T13:57:08.664Z,21.24
2023-04-18T14:02:08.832Z,21.76
2023-04-18T14:07:08.562Z,21.99
2023-04-18T14:12:08.459Z,21.82
2023-04-18T14:17:08.382Z,21.36
2023-04-18T14:22:10.960Z,20.86
2023-04-18T14:27:08.254Z,20.69
2023-04-18T14:32:08.239Z,20.86
2023-04-18T14:37:09.501Z,21.21
2023-04-18T14:42:08.200Z,21.67
2023-04-18T14:47:08.126Z,21.89
2023-04-18T14:52:07.985Z,21.91
2023-04-18T14:57:07.876Z,21.82
2023-04-18T15:02:07.885Z,21.64
2023-04-18T15:07:07.827Z,21.44
2023-04-18T15:12:07.679Z,21.12
2023-04-18T15:17:07.612Z,20.96
2023-04-18T15:22:07.538Z,20.80
2023-04-18T15:27:07.480Z,20.37
2023-04-18T15:32:07.453Z,19.76
2023-04-18T15:37:07.357Z,19.15
2023-04-18T15:42:07.281Z,18.92
2023-04-18T15:47:07.173Z,19.06
2023-04-18T15:52:07.149Z,19.25
2023-04-18T15:57:07.079Z,19.32
2023-04-18T16:02:07.169Z,19.19
2023-04-18T16:07:07.020Z,18.91
2023-04-18T16:12:06.865Z,18.67
2023-04-18T16:17:06.801Z,18.50
2023-04-18T16:22:06.735Z,18.24
2023-04-18T16:27:06.666Z,17.91
2023-04-18T16:32:06.658Z,17.72
2023-04-18T16:37:06.552Z,17.72
2023-04-18T16:42:06.487Z,17.75
2023-04-18T16:47:06.488Z,17.70
2023-04-18T16:52:06.362Z,17.50
2023-04-18T16:57:06.321Z,17.26
2023-04-18T17:02:06.311Z,17.08
2023-04-18T17:07:06.142Z,16.96
2023-04-18T17:12:06.087Z,16.74
2023-04-18T17:17:06.056Z,16.38
2023-04-18T17:22:05.938Z,16.03
2023-04-18T17:27:05.915Z,15.78
2023-04-18T17:32:05.859Z,15.58
2023-04-18T17:37:05.787Z,15.39
2023-04-18T17:42:05.677Z,15.23
2023-04-18T17:47:05.987Z,15.12
2023-04-18T17:52:05.560Z,15.02
2023-04-18T17:57:05.489Z,14.92
2023-04-18T18:02:05.589Z,14.81
2023-04-18T18:07:05.385Z,14.65
2023-04-18T18:12:05.388Z,14.45
2023-04-18T18:17:05.257Z,14.24
2023-04-18T18:22:05.141Z,14.02
2023-04-18T18:27:05.188Z,13.82
2023-04-18T18:32:05.012Z,13.64
2023-04-18T18:37:04.973Z,13.47
2023-04-18T18:42:04.866Z,13.31
2023-04-18T18:47:04.901Z,13.18
2023-04-18T18:52:05.668Z,13.08
2023-04-18T18:57:04.692Z,13.00
2023-04-18T19:02:04.695Z,12.95
2023-04-18T19:07:04.589Z,12.93
2023-04-18T19:12:04.569Z,12.93
2023-04-18T19:17:04.431Z,12.93
2023-04-18T19:22:04.345Z,12.93
2023-04-18T19:27:04.285Z,12.93
2023-04-18T19:32:04.327Z,12.93
2023-04-18T19:37:04.160Z,12.93
2023-04-18T19:42:04.239Z,12.93
2023-04-18T19:47:04.043Z,12.94
2023-04-18T19:52:03.919Z,12.95
2023-04-18T19:57:03.899Z,12.96
2023-04-18T20:02:06.035Z,12.96
2023-04-18T20:07:03.785Z,12.95
2023-04-18T20:12:03.681Z,12.94
2023-04-18T20:17:06.903Z,12.93
2023-04-18T20:22:05.750Z,12.91
2023-04-18T20:32:55.524Z,13.90
2023-04-18T20:37:55.552Z,13.40
2023-04-18T20:42:55.356Z,13.11
2023-04-18T20:47:55.653Z,12.94
2023-04-18T20:52:55.654Z,12.84
2023-04-18T20:57:55.271Z,12.78
2023-04-18T21:02:55.135Z,12.73
2023-04-18T21:07:55.077Z,12.71
2023-04-18T21:12:54.950Z,12.69
2023-04-18T21:17:54.951Z,12.67
2023-04-18T21:22:54.857Z,12.66
2023-04-18T21:27:54.767Z,12.63
2023-04-18T21:32:54.744Z,12.60
2023-04-18T21:37:54.626Z,12.57
2023-04-18T21:42:54.544Z,12.55
2023-04-18T21:47:54.724Z,12.53
2023-04-18T21:52:54.465Z,12.52
2023-04-18T21:57:54.388Z,12.51
2023-04-18T22:02:54.385Z,12.49
2023-04-18T22:07:57.867Z,12.48
2023-04-18T22:12:54.179Z,12.46
2023-04-18T22:17:54.225Z,12.46
2023-04-18T22:22:54.021Z,12.44
2023-04-18T22:27:53.975Z,12.42
2023-04-18T22:32:53.936Z,12.39
2023-04-18T22:37:53.825Z,12.36
2023-04-18T22:42:53.775Z,12.33
2023-04-18T22:47:53.802Z,12.29
2023-04-18T22:52:53.644Z,12.24
2023-04-18T22:57:53.542Z,12.17
2023-04-18T23:02:53.682Z,12.11
2023-04-18T23:07:53.451Z,12.05
2023-04-18T23:12:53.338Z,11.99
2023-04-18T23:17:53.381Z,11.94
2023-04-18T23:22:53.275Z,11.90
2023-04-18T23:27:53.209Z,11.87
2023-04-18T23:32:53.160Z,11.83
2023-04-18T23:37:53.051Z,11.79
2023-04-18T23:42:52.975Z,11.75
2023-04-18T23:47:52.967Z,11.71
2023-04-18T23:52:52.851Z,11.68
2023-04-18T23:57:52.772Z,11.64
